createdAt,value
2023-02-26T00:01:31.483Z,1.20
2023-02-26T00:04:02.114Z,1.18
2023-02-26T00:06:31.926Z,1.23
2023-02-26T00:08:59.339Z,1.21
2023-02-26T00:11:26.785Z,1.17
2023-02-26T00:13:54.569Z,1.09
2023-02-26T00:16:33.545Z,1.12
2023-02-26T00:19:04.289Z,1.05
2023-02-26T00:21:32.149Z,1.13
2023-02-26T00:24:00.419Z,1.15
2023-02-26T00:26:31.076Z,1.13
2023-02-26T00:28:58.952Z,1.14
2023-02-26T00:31:27.729Z,1.14
2023-02-26T00:33:58.432Z,1.17
2023-02-26T00:36:40.935Z,1.17
2023-02-26T00:39:29.927Z,1.19
2023-02-26T00:41:58.174Z,1.15
2023-02-26T00:44:26.624Z,1.08
2023-02-26T00:47:03.870Z,1.11
2023-02-26T00:49:46.046Z,1.05
2023-02-26T00:53:05.727Z,1.06
2023-02-26T00:55:32.810Z,0.97
2023-02-26T00:57:59.872Z,0.98
2023-02-26T01:00:28.577Z,0.96
2023-02-26T01:02:56.548Z,0.91
2023-02-26T01:05:23.967Z,0.86
2023-02-26T01:08:00.216Z,0.82
2023-02-26T01:10:28.450Z,0.81
2023-02-26T01:12:57.541Z,0.79
2023-02-26T01:15:24.993Z,0.72
2023-02-26T01:18:11.768Z,0.72
2023-02-26T01:20:46.288Z,0.76
2023-02-26T01:23:16.654Z,0.74
2023-02-26T01:25:59.339Z,0.72
2023-02-26T01:28:27.622Z,0.69
2023-02-26T01:31:00.745Z,0.57
2023-02-26T01:33:44.516Z,0.67
2023-02-26T01:36:27.063Z,0.64
2023-02-26T01:39:18.054Z,0.60
2023-02-26T01:41:52.125Z,0.51
2023-02-26T01:44:54.606Z,0.56
2023-02-26T01:47:56.949Z,0.52
2023-02-26T01:50:29.924Z,0.47
2023-02-26T01:53:25.864Z,0.55
2023-02-26T01:56:01.749Z,0.53
2023-02-26T01:58:33.446Z,0.53
2023-02-26T02:01:01.316Z,0.50
2023-02-26T02:03:32.168Z,0.44
2023-02-26T02:06:12.088Z,0.38
2023-02-26T02:08:39.471Z,0.35
2023-02-26T02:11:09.806Z,0.31
2023-02-26T02:13:51.900Z,0.30
2023-02-26T02:16:37.303Z,0.25
2023-02-26T02:19:22.788Z,0.20
2023-02-26T02:22:20.176Z,0.18
2023-02-26T02:25:14.961Z,0.10
2023-02-26T02:28:15.545Z,0.07
2023-02-26T02:31:09.922Z,0.05
2023-02-26T02:33:52.064Z,0.06
2023-02-26T02:36:45.140Z,0.01
2023-02-26T02:39:36.349Z,-0.06
2023-02-26T02:42:09.225Z,-0.06
2023-02-26T02:44:41.923Z,-0.11
2023-02-26T02:47:11.567Z,-0.10
2023-02-26T02:49:46.343Z,-0.15
2023-02-26T02:52:19.296Z,-0.15
2023-02-26T02:54:55.683Z,-0.18
2023-02-26T02:57:28.733Z,-0.19
2023-02-26T03:00:01.065Z,-0.24
2023-02-26T03:02:39.892Z,-0.21
2023-02-26T03:05:07.929Z,-0.24
2023-02-26T03:07:54.611Z,-0.23
2023-02-26T03:10:22.027Z,-0.24
2023-02-26T03:12:49.098Z,-0.22
2023-02-26T03:15:22.758Z,-0.27
2023-02-26T03:18:00.708Z,-0.21
2023-02-26T03:20:33.899Z,-0.31
2023-02-26T03:23:06.092Z,-0.34
2023-02-26T03:25:45.440Z,-0.38
2023-02-26T03:28:31.453Z,-0.35
2023-02-26T03:31:07.410Z,-0.39
2023-02-26T03:34:00.741Z,-0.41
2023-02-26T03:36:53.275Z,-0.41
2023-02-26T03:39:29.726Z,-0.42
2023-02-26T03:42:00.505Z,-0.50
2023-02-26T03:44:35.146Z,-0.42
2023-02-26T03:47:08.037Z,-0.43
2023-02-26T03:49:41.573Z,-0.44
2023-02-26T03:52:08.913Z,-0.39
2023-02-26T03:54:41.442Z,-0.43
2023-02-26T03:57:08.562Z,-0.45
2023-02-26T03:59:35.987Z,-0.52
2023-02-26T04:02:14.293Z,-0.51
2023-02-26T04:04:47.344Z,-0.62
2023-02-26T04:07:17.020Z,-0.60
2023-02-26T04:09:47.656Z,-0.62
2023-02-26T04:12:15.500Z,-0.64
2023-02-26T04:14:42.583Z,-0.68
2023-02-26T04:17:09.728Z,-0.70
2023-02-26T04:19:36.758Z,-0.73
2023-02-26T04:22:03.936Z,-0.80
2023-02-26T04:24:31.018Z,-0.78
2023-02-26T04:26:58.976Z,-0.81
2023-02-26T04:29:26.056Z,-0.90
2023-02-26T04:31:53.738Z,-0.87
2023-02-26T04:34:20.856Z,-0.89
2023-02-26T04:36:47.965Z,-0.91
2023-02-26T04:39:15.067Z,-0.92
2023-02-26T04:41:42.106Z,-0.91
2023-02-26T04:44:09.221Z,-0.92
2023-02-26T04:46:36.505Z,-0.94
2023-02-26T04:49:03.628Z,-0.96
2023-02-26T04:51:30.939Z,-0.98
2023-02-26T04:53:58.137Z,-1.01
2023-02-26T04:56:26.689Z,-1.06
2023-02-26T04:58:53.884Z,-1.07
2023-02-26T05:01:20.922Z,-1.10
2023-02-26T05:03:48.044Z,-1.16
2023-02-26T05:06:15.172Z,-1.14
2023-02-26T05:08:44.077Z,-1.14
2023-02-26T05:11:11.755Z,-1.14
2023-02-26T05:13:39.290Z,-1.19
2023-02-26T05:16:08.084Z,-1.20
2023-02-26T05:18:35.184Z,-1.23
2023-02-26T05:21:02.600Z,-1.22
2023-02-26T05:23:29.701Z,-1.26
2023-02-26T05:25:58.955Z,-1.28
2023-02-26T05:28:28.173Z,-1.29
2023-02-26T05:30:58.505Z,-1.30
2023-02-26T05:33:27.289Z,-1.32
2023-02-26T05:35:54.597Z,-1.32
2023-02-26T05:38:24.129Z,-1.37
2023-02-26T05:40:51.169Z,-1.40
2023-02-26T05:43:18.246Z,-1.39
2023-02-26T05:45:45.370Z,-1.42
2023-02-26T05:48:13.239Z,-1.42
2023-02-26T05:50:40.328Z,-1.41
2023-02-26T05:53:07.388Z,-1.52
2023-02-26T05:55:34.483Z,-1.53
2023-02-26T05:58:01.798Z,-1.50
2023-02-26T06:00:28.908Z,-1.51
2023-02-26T06:02:57.413Z,-1.52
2023-02-26T06:05:24.497Z,-1.51
2023-02-26T06:07:51.522Z,-1.49
2023-02-26T06:10:18.645Z,-1.51
2023-02-26T06:12:45.766Z,-1.55
2023-02-26T06:15:13.048Z,-1.56
2023-02-26T06:17:41.039Z,-1.55
2023-02-26T06:20:09.439Z,-1.57
2023-02-26T06:22:36.658Z,-1.62
2023-02-26T06:25:04.570Z,-1.63
2023-02-26T06:27:31.621Z,-1.65
2023-02-26T06:29:58.704Z,-1.66
2023-02-26T06:32:30.568Z,-1.68
2023-02-26T06:35:00.783Z,-1.69
2023-02-26T06:37:28.697Z,-1.70
2023-02-26T06:39:55.736Z,-1.67
2023-02-26T06:42:23.315Z,-1.70
2023-02-26T06:44:50.479Z,-1.67
2023-02-26T06:47:17.520Z,-1.67
2023-02-26T06:49:44.570Z,-1.67
2023-02-26T06:52:11.724Z,-1.68
2023-02-26T06:54:38.824Z,-1.64
2023-02-26T06:57:05.900Z,-1.69
2023-02-26T06:59:33.153Z,-1.63
2023-02-26T07:02:00.679Z,-1.53
2023-02-26T07:04:28.695Z,-1.47
2023-02-26T07:06:55.780Z,-1.40
2023-02-26T07:09:22.938Z,-1.37
2023-02-26T07:11:50.117Z,-1.31
2023-02-26T07:14:17.392Z,-1.25
2023-02-26T07:16:44.582Z,-1.24
2023-02-26T07:19:11.613Z,-1.22
2023-02-26T07:21:38.666Z,-1.12
2023-02-26T07:24:06.466Z,-1.06
2023-02-26T07:26:33.598Z,-0.98
2023-02-26T07:29:00.708Z,-0.91
2023-02-26T07:31:28.882Z,-0.80
2023-02-26T07:33:56.067Z,-0.72
2023-02-26T07:36:23.554Z,-0.64
2023-02-26T07:38:50.826Z,-0.56
2023-02-26T07:41:17.941Z,-0.53
2023-02-26T07:43:45.045Z,-0.42
2023-02-26T07:46:12.394Z,-0.33
2023-02-26T07:48:39.528Z,-0.30
2023-02-26T07:51:07.866Z,-0.18
2023-02-26T07:53:35.019Z,-0.08
2023-02-26T07:56:02.165Z,-0.08
2023-02-26T07:58:29.274Z,0.02
2023-02-26T08:00:57.458Z,0.12
2023-02-26T08:03:24.446Z,0.08
2023-02-26T08:05:51.968Z,0.28
2023-02-26T08:08:19.086Z,0.29
2023-02-26T08:10:46.167Z,0.35
2023-02-26T08:13:13.339Z,0.39
2023-02-26T08:15:43.850Z,0.42
2023-02-26T08:18:12.124Z,0.35
2023-02-26T08:20:40.080Z,0.39
2023-02-26T08:23:07.209Z,0.53
2023-02-26T08:25:34.395Z,0.59
2023-02-26T08:28:03.246Z,0.61
2023-02-26T08:30:30.447Z,0.67
2023-02-26T08:32:58.491Z,0.71
2023-02-26T08:35:25.668Z,0.81
2023-02-26T08:37:55.562Z,0.89
2023-02-26T08:40:23.397Z,0.93
2023-02-26T08:42:50.435Z,0.98
2023-02-26T08:45:17.622Z,1.00
2023-02-26T08:47:56.087Z,1.08
2023-02-26T08:50:25.862Z,1.16
2023-02-26T08:52:53.404Z,1.22
2023-02-26T08:55:21.272Z,1.23
2023-02-26T08:57:48.371Z,1.26
2023-02-26T09:00:24.501Z,1.33
2023-02-26T09:02:52.209Z,1.37
2023-02-26T09:05:19.338Z,1.46
2023-02-26T09:07:46.392Z,1.49
2023-02-26T09:10:14.394Z,1.57
2023-02-26T09:12:41.778Z,1.63
2023-02-26T09:15:10.543Z,1.65
2023-02-26T09:17:38.325Z,1.71
2023-02-26T09:20:06.194Z,1.77
2023-02-26T09:22:33.220Z,1.81
2023-02-26T09:25:00.630Z,1.77
2023-02-26T09:27:28.791Z,1.80
2023-02-26T09:29:55.808Z,1.87
2023-02-26T09:32:23.658Z,1.93
2023-02-26T09:34:51.201Z,1.97
2023-02-26T09:37:18.917Z,2.02
2023-02-26T09:39:46.522Z,2.04
2023-02-26T09:42:27.910Z,2.06
2023-02-26T09:44:59.938Z,2.09
2023-02-26T09:47:39.339Z,2.14
2023-02-26T09:50:13.291Z,2.20
2023-02-26T09:52:47.010Z,2.20
2023-02-26T09:55:23.192Z,2.28
2023-02-26T09:57:53.252Z,2.34
2023-02-26T10:00:20.303Z,2.40
2023-02-26T10:03:17.820Z,2.43
2023-02-26T10:06:19.504Z,2.49
2023-02-26T10:09:00.890Z,2.58
2023-02-26T10:11:43.678Z,2.67
2023-02-26T10:14:16.683Z,2.73
2023-02-26T10:16:50.010Z,2.83
2023-02-26T10:19:20.948Z,2.89
2023-02-26T10:21:48.048Z,2.93
2023-02-26T10:24:37.522Z,2.98
2023-02-26T10:27:10.103Z,3.02
2023-02-26T10:29:45.777Z,3.05
2023-02-26T10:32:43.473Z,3.15
2023-02-26T10:35:15.467Z,3.14
2023-02-26T10:37:51.283Z,3.21
2023-02-26T10:40:36.731Z,3.24
2023-02-26T10:43:09.688Z,3.30
2023-02-26T10:45:54.814Z,3.37
2023-02-26T10:48:32.284Z,3.42
2023-02-26T10:51:01.657Z,3.49
2023-02-26T10:53:31.649Z,3.64
2023-02-26T10:56:10.270Z,3.63
2023-02-26T10:58:37.587Z,3.75
2023-02-26T11:01:11.234Z,3.70
2023-02-26T11:03:40.426Z,3.76
2023-02-26T11:06:07.902Z,3.78
2023-02-26T11:08:42.763Z,3.83
2023-02-26T11:11:10.032Z,3.85
2023-02-26T11:13:38.755Z,3.78
2023-02-26T11:16:13.785Z,3.76
2023-02-26T11:18:54.929Z,3.87
2023-02-26T11:21:34.886Z,3.86
2023-02-26T11:24:07.030Z,3.96
2023-02-26T11:26:38.802Z,3.79
2023-02-26T11:29:06.410Z,3.93
2023-02-26T11:31:34.048Z,3.94
2023-02-26T11:34:08.421Z,3.92
2023-02-26T11:36:40.476Z,3.87
2023-02-26T11:39:13.512Z,3.96
2023-02-26T11:41:41.204Z,4.00
2023-02-26T11:44:14.312Z,4.08
2023-02-26T11:46:53.132Z,4.13
2023-02-26T11:49:23.870Z,4.06
2023-02-26T11:52:26.438Z,4.17
2023-02-26T11:55:00.705Z,4.07
2023-02-26T11:57:30.357Z,4.11
2023-02-26T12:00:01.427Z,4.17
2023-02-26T12:02:37.080Z,4.24
2023-02-26T12:05:07.022Z,4.19
2023-02-26T12:07:34.348Z,4.17
2023-02-26T12:10:01.748Z,4.11
2023-02-26T12:12:43.855Z,4.05
2023-02-26T12:15:28.609Z,4.04
2023-02-26T12:18:11.241Z,4.08
2023-02-26T12:21:02.887Z,4.15
2023-02-26T12:23:51.225Z,4.28
2023-02-26T12:26:33.938Z,4.40
2023-02-26T12:29:38.491Z,4.55
2023-02-26T12:32:16.055Z,4.51
2023-02-26T12:35:02.145Z,4.49
2023-02-26T12:38:08.807Z,4.42
2023-02-26T12:41:05.509Z,4.42
2023-02-26T12:43:44.473Z,4.43
2023-02-26T12:46:33.047Z,4.46
2023-02-26T12:49:47.568Z,4.50
2023-02-26T12:52:36.097Z,4.57
2023-02-26T12:55:09.604Z,4.59
2023-02-26T12:57:58.913Z,4.62
2023-02-26T13:00:35.209Z,4.62
2023-02-26T13:03:25.199Z,4.67
2023-02-26T13:06:36.090Z,4.68
2023-02-26T13:09:21.732Z,4.68
2023-02-26T13:12:47.461Z,4.63
2023-02-26T13:15:26.171Z,4.64
2023-02-26T13:18:17.698Z,4.70
2023-02-26T13:20:58.466Z,4.82
2023-02-26T13:23:37.317Z,4.86
2023-02-26T13:26:08.975Z,4.89
2023-02-26T13:28:41.026Z,4.90
2023-02-26T13:31:19.002Z,4.95
2023-02-26T13:33:48.146Z,4.95
2023-02-26T13:36:16.814Z,4.93
2023-02-26T13:39:04.711Z,4.90
2023-02-26T13:41:57.596Z,4.93
2023-02-26T13:44:37.344Z,4.89
2023-02-26T13:47:10.842Z,5.09
2023-02-26T13:49:45.892Z,5.17
2023-02-26T13:52:25.488Z,5.25
2023-02-26T13:54:53.652Z,5.22
2023-02-26T13:57:32.566Z,5.19
2023-02-26T14:00:16.341Z,5.17
2023-02-26T14:02:50.006Z,5.21
2023-02-26T14:05:48.917Z,5.18
2023-02-26T14:08:15.984Z,5.19
2023-02-26T14:10:55.159Z,5.22
2023-02-26T14:13:36.939Z,5.32
2023-02-26T14:16:09.751Z,5.32
2023-02-26T14:18:47.153Z,5.28
2023-02-26T14:21:32.649Z,5.24
2023-02-26T14:24:06.631Z,5.25
2023-02-26T14:26:36.900Z,5.29
2023-02-26T14:29:06.533Z,5.43
2023-02-26T14:32:06.755Z,5.55
2023-02-26T14:34:55.323Z,5.78
2023-02-26T14:37:25.001Z,5.90
2023-02-26T14:39:59.548Z,6.02
2023-02-26T14:42:37.241Z,6.09
2023-02-26T14:45:16.334Z,6.25
2023-02-26T14:47:48.547Z,6.31
2023-02-26T14:50:19.087Z,6.46
2023-02-26T14:53:22.133Z,6.55
2023-02-26T14:56:02.629Z,6.57
2023-02-26T14:58:58.701Z,6.43
2023-02-26T15:01:25.785Z,6.26
2023-02-26T15:04:37.083Z,6.22
2023-02-26T15:07:28.992Z,6.52
2023-02-26T15:10:23.777Z,7.10
2023-02-26T15:13:25.777Z,7.63
2023-02-26T15:16:05.060Z,8.05
2023-02-26T15:18:48.895Z,8.15
2023-02-26T15:21:57.603Z,8.01
2023-02-26T15:24:24.844Z,7.66
2023-02-26T15:26:54.625Z,7.73
2023-02-26T15:29:28.860Z,7.68
2023-02-26T15:32:04.127Z,7.26
2023-02-26T15:34:33.884Z,7.09
2023-02-26T15:37:01.545Z,6.78
2023-02-26T15:39:29.198Z,6.86
2023-02-26T15:41:57.697Z,6.89
2023-02-26T15:44:32.829Z,6.89
2023-02-26T15:47:02.088Z,6.99
2023-02-26T15:49:35.463Z,6.95
2023-02-26T15:52:05.519Z,6.87
2023-02-26T15:55:00.561Z,6.75
2023-02-26T15:57:29.559Z,6.95
2023-02-26T16:00:16.837Z,6.82
2023-02-26T16:02:45.504Z,6.51
2023-02-26T16:05:16.353Z,5.91
2023-02-26T16:07:43.403Z,5.64
2023-02-26T16:10:38.660Z,5.53
2023-02-26T16:13:11.115Z,5.35
2023-02-26T16:15:39.881Z,5.82
2023-02-26T16:18:12.170Z,5.97
2023-02-26T16:20:44.196Z,6.52
2023-02-26T16:23:16.481Z,6.94
2023-02-26T16:25:54.268Z,7.22
2023-02-26T16:28:28.546Z,7.39
2023-02-26T16:31:00.885Z,7.32
2023-02-26T16:33:33.357Z,7.43
2023-02-26T16:36:14.408Z,7.03
2023-02-26T16:38:44.240Z,6.70
2023-02-26T16:41:12.446Z,6.04
2023-02-26T16:43:45.436Z,5.60
2023-02-26T16:46:22.749Z,5.37
2023-02-26T16:49:02.335Z,5.04
2023-02-26T16:51:32.640Z,4.73
2023-02-26T16:54:04.915Z,4.46
2023-02-26T16:56:35.343Z,4.27
2023-02-26T16:59:04.869Z,4.23
2023-02-26T17:01:37.931Z,4.06
2023-02-26T17:04:07.421Z,3.95
2023-02-26T17:06:39.044Z,3.96
2023-02-26T17:09:10.402Z,3.88
2023-02-26T17:11:44.389Z,3.76
2023-02-26T17:14:22.972Z,3.66
2023-02-26T17:16:51.248Z,3.65
2023-02-26T17:19:19.223Z,3.59
2023-02-26T17:21:49.765Z,3.57
2023-02-26T17:24:20.394Z,3.35
2023-02-26T17:26:48.147Z,3.35
2023-02-26T17:29:19.712Z,3.30
2023-02-26T17:31:47.034Z,3.27
2023-02-26T17:34:14.283Z,3.25
2023-02-26T17:36:41.387Z,3.19
2023-02-26T17:39:13.002Z,3.11
2023-02-26T17:41:43.610Z,3.05
2023-02-26T17:44:10.753Z,3.05
2023-02-26T17:46:37.998Z,2.88
2023-02-26T17:49:05.049Z,2.94
2023-02-26T17:51:32.164Z,2.91
2023-02-26T17:53:59.338Z,2.87
2023-02-26T17:56:30.066Z,2.77
2023-02-26T17:58:59.258Z,2.74
2023-02-26T18:01:30.011Z,2.68
2023-02-26T18:04:00.779Z,2.66
2023-02-26T18:06:33.244Z,2.60
2023-02-26T18:09:01.633Z,2.60
2023-02-26T18:11:29.166Z,2.53
2023-02-26T18:13:57.656Z,2.50
2023-02-26T18:16:34.151Z,2.63
2023-02-26T18:19:02.039Z,2.69
2023-02-26T18:21:29.458Z,2.68
2023-02-26T18:23:57.885Z,2.69
2023-02-26T18:26:28.655Z,2.67
2023-02-26T18:28:55.868Z,2.65
2023-02-26T18:31:24.792Z,2.62
2023-02-26T18:33:52.102Z,2.58
2023-02-26T18:36:35.581Z,2.58
2023-02-26T18:39:05.161Z,2.56
2023-02-26T18:41:32.770Z,2.52
2023-02-26T18:44:00.654Z,2.51
2023-02-26T18:46:30.009Z,2.44
2023-02-26T18:48:57.639Z,2.43
2023-02-26T18:51:25.252Z,2.40
2023-02-26T18:53:53.237Z,2.39
2023-02-26T18:56:20.258Z,2.35
2023-02-26T18:58:47.363Z,2.35
2023-02-26T19:01:14.519Z,2.35
2023-02-26T19:03:41.552Z,2.26
2023-02-26T19:06:09.126Z,2.19
2023-02-26T19:08:36.346Z,2.05
2023-02-26T19:11:03.481Z,2.01
2023-02-26T19:13:30.773Z,1.93
2023-02-26T19:15:58.861Z,1.86
2023-02-26T19:18:26.295Z,1.80
2023-02-26T19:20:53.581Z,1.73
2023-02-26T19:23:20.720Z,1.68
2023-02-26T19:25:48.104Z,1.68
2023-02-26T19:28:15.223Z,1.66
2023-02-26T19:30:42.426Z,1.61
2023-02-26T19:33:09.571Z,1.57
2023-02-26T19:35:36.764Z,1.55
2023-02-26T19:38:03.998Z,1.54
2023-02-26T19:40:31.105Z,1.53
2023-02-26T19:42:58.918Z,1.55
2023-02-26T19:45:26.065Z,1.58
2023-02-26T19:47:53.203Z,1.57
2023-02-26T19:50:22.442Z,1.54
2023-02-26T19:52:49.943Z,1.55
2023-02-26T19:55:17.504Z,1.53
2023-02-26T19:57:44.611Z,1.49
2023-02-26T20:00:14.166Z,1.42
2023-02-26T20:02:41.641Z,1.39
2023-02-26T20:05:11.561Z,1.35
2023-02-26T20:07:38.716Z,1.33
2023-02-26T20:10:06.371Z,1.31
2023-02-26T20:12:33.407Z,1.30
2023-02-26T20:15:00.654Z,1.28
2023-02-26T20:17:32.111Z,1.22
2023-02-26T20:19:59.210Z,1.12
2023-02-26T20:22:26.542Z,1.09
2023-02-26T20:24:54.917Z,0.99
2023-02-26T20:27:22.074Z,0.96
2023-02-26T20:29:50.887Z,0.90
2023-02-26T20:32:18.223Z,0.75
2023-02-26T20:34:45.364Z,0.71
2023-02-26T20:37:12.368Z,0.66
2023-02-26T20:39:39.435Z,0.62
2023-02-26T20:42:06.629Z,0.58
2023-02-26T20:44:33.658Z,0.55
2023-02-26T20:47:02.595Z,0.54
2023-02-26T20:49:30.378Z,0.51
2023-02-26T20:51:58.537Z,0.47
2023-02-26T20:54:25.756Z,0.45
2023-02-26T20:56:53.323Z,0.46
2023-02-26T20:59:20.528Z,0.49
2023-02-26T21:01:51.205Z,0.46
2023-02-26T21:04:18.634Z,0.50
2023-02-26T21:06:45.823Z,0.51
2023-02-26T21:09:13.487Z,0.48
2023-02-26T21:11:41.698Z,0.44
2023-02-26T21:14:09.565Z,0.45
2023-02-26T21:16:37.339Z,0.44
2023-02-26T21:19:04.575Z,0.46
2023-02-26T21:21:31.907Z,0.48
2023-02-26T21:23:59.164Z,0.47
2023-02-26T21:26:28.483Z,0.47
2023-02-26T21:28:55.649Z,0.40
2023-02-26T21:31:22.747Z,0.40
2023-02-26T21:33:49.928Z,0.52
2023-02-26T21:36:16.968Z,0.49
2023-02-26T21:38:44.251Z,0.55
2023-02-26T21:41:11.619Z,0.61
2023-02-26T21:43:39.232Z,0.63
2023-02-26T21:46:06.623Z,0.67
2023-02-26T21:48:33.977Z,0.68
2023-02-26T21:51:04.715Z,0.61
2023-02-26T21:53:31.893Z,0.70
2023-02-26T21:55:58.978Z,0.78
2023-02-26T21:58:26.359Z,0.83
2023-02-26T22:00:53.773Z,0.80
2023-02-26T22:03:20.824Z,0.75
2023-02-26T22:05:51.325Z,0.78
2023-02-26T22:08:19.589Z,0.78
2023-02-26T22:10:46.900Z,0.83
2023-02-26T22:13:14.922Z,0.86
2023-02-26T22:15:42.635Z,0.88
2023-02-26T22:18:09.784Z,0.90
2023-02-26T22:20:37.034Z,0.91
2023-02-26T22:23:04.730Z,0.93
2023-02-26T22:25:31.968Z,0.93
2023-02-26T22:27:59.624Z,0.88
2023-02-26T22:30:27.579Z,0.90
2023-02-26T22:32:55.131Z,0.81
2023-02-26T22:35:22.279Z,0.75
2023-02-26T22:37:49.403Z,0.70
2023-02-26T22:40:16.651Z,0.60
2023-02-26T22:42:44.256Z,0.49
2023-02-26T22:45:13.401Z,0.55
2023-02-26T22:47:40.535Z,0.53
2023-02-26T22:50:07.781Z,0.50
2023-02-26T22:52:34.843Z,0.42
2023-02-26T22:55:02.115Z,0.41
2023-02-26T22:57:29.298Z,0.27
2023-02-26T22:59:56.312Z,0.31
2023-02-26T23:02:24.358Z,0.28
2023-02-26T23:04:51.519Z,0.25
2023-02-26T23:07:18.645Z,0.27
2023-02-26T23:09:45.705Z,0.28
2023-02-26T23:12:12.726Z,0.31
2023-02-26T23:14:40.201Z,0.34
2023-02-26T23:17:08.731Z,0.44
2023-02-26T23:19:36.752Z,0.45
2023-02-26T23:22:03.910Z,0.57
2023-02-26T23:24:30.975Z,0.57
2023-02-26T23:26:58.821Z,0.62
2023-02-26T23:29:25.929Z,0.60
2023-02-26T23:31:53.171Z,0.52
2023-02-26T23:34:20.348Z,0.53
2023-02-26T23:36:47.416Z,0.46
2023-02-26T23:39:15.336Z,0.46
2023-02-26T23:41:42.388Z,0.38
2023-02-26T23:44:09.512Z,0.37
2023-02-26T23:46:37.542Z,0.37
2023-02-26T23:49:04.710Z,0.42
2023-02-26T23:51:31.740Z,0.40
2023-02-26T23:53:58.747Z,0.40
2023-02-26T23:56:25.915Z,0.38
2023-02-26T23:58:53.099Z,0.38
